sensor_id;sensor_type;location;lat;lon;timestamp;pressure;altitude;pressure_sealevel;temperature;humidity
5651;BME280;40241;52.684;9.758;2023-05-09T00:01:52;101798.53;;;15.19;43.54
5651;BME280;40241;52.684;9.758;2023-05-09T00:04:18;101796.50;;;15.14;43.78
5651;BME280;40241;52.684;9.758;2023-05-09T00:06:43;101786.09;;;15.03;43.79
5651;BME280;40241;52.684;9.758;2023-05-09T00:09:09;101807.50;;;15.03;43.74
5651;BME280;40241;52.684;9.758;2023-05-09T00:11:34;101801.69;;;15.01;43.86
5651;BME280;40241;52.684;9.758;2023-05-09T00:14:00;101791.63;;;14.98;43.85
5651;BME280;40241;52.684;9.758;2023-05-09T00:16:26;101790.34;;;14.93;43.76
5651;BME280;40241;52.684;9.758;2023-05-09T00:18:53;101796.59;;;14.88;43.95
5651;BME280;40241;52.684;9.758;2023-05-09T00:21:18;101802.84;;;14.83;43.85
5651;BME280;40241;52.684;9.758;2023-05-09T00:23:45;101776.16;;;14.80;44.17
5651;BME280;40241;52.684;9.758;2023-05-09T00:26:10;101786.47;;;14.80;44.20
5651;BME280;40241;52.684;9.758;2023-05-09T00:28:35;101779.66;;;14.81;44.13
5651;BME280;40241;52.684;9.758;2023-05-09T00:31:02;101769.59;;;14.78;44.05
5651;BME280;40241;52.684;9.758;2023-05-09T00:33:28;101770.09;;;14.76;43.91
5651;BME280;40241;52.684;9.758;2023-05-09T00:35:53;101777.38;;;14.74;43.72
5651;BME280;40241;52.684;9.758;2023-05-09T00:38:19;101756.16;;;14.65;43.90
5651;BME280;40241;52.684;9.758;2023-05-09T00:40:44;101811.00;;;14.61;44.04
5651;BME280;40241;52.684;9.758;2023-05-09T00:43:10;101758.38;;;14.61;43.90
5651;BME280;40241;52.684;9.758;2023-05-09T00:45:36;101744.75;;;14.58;43.94
5651;BME280;40241;52.684;9.758;2023-05-09T00:48:01;101745.28;;;14.56;44.01
5651;BME280;40241;52.684;9.758;2023-05-09T00:50:27;101736.91;;;14.51;43.98
5651;BME280;40241;52.684;9.758;2023-05-09T00:52:52;101788.72;;;14.45;44.14
5651;BME280;40241;52.684;9.758;2023-05-09T00:55:18;101739.41;;;14.49;44.46
5651;BME280;40241;52.684;9.758;2023-05-09T00:57:43;101752.47;;;14.43;44.23
5651;BME280;40241;52.684;9.758;2023-05-09T01:00:10;101738.63;;;14.43;44.05
5651;BME280;40241;52.684;9.758;2023-05-09T01:02:39;101745.69;;;14.44;44.37
5651;BME280;40241;52.684;9.758;2023-05-09T01:05:05;101738.13;;;14.44;44.34
5651;BME280;40241;52.684;9.758;2023-05-09T01:10:42;101720.22;;;14.40;44.67
5651;BME280;40241;52.684;9.758;2023-05-09T01:13:20;101757.19;;;14.37;44.33
5651;BME280;40241;52.684;9.758;2023-05-09T01:15:53;101722.44;;;14.36;44.64
5651;BME280;40241;52.684;9.758;2023-05-09T01:18:41;101711.88;;;14.34;44.59
5651;BME280;40241;52.684;9.758;2023-05-09T01:21:12;101709.81;;;14.29;44.36
5651;BME280;40241;52.684;9.758;2023-05-09T01:26:30;101707.19;;;14.20;44.67
5651;BME280;40241;52.684;9.758;2023-05-09T01:31:38;101705.69;;;14.19;44.75
5651;BME280;40241;52.684;9.758;2023-05-09T01:34:05;101702.16;;;14.18;44.51
5651;BME280;40241;52.684;9.758;2023-05-09T01:36:31;101707.69;;;14.18;44.38
5651;BME280;40241;52.684;9.758;2023-05-09T01:38:58;101705.69;;;14.19;44.36
5651;BME280;40241;52.684;9.758;2023-05-09T01:41:24;101694.84;;;14.15;44.52
5651;BME280;40241;52.684;9.758;2023-05-09T01:43:54;101698.34;;;14.10;44.56
5651;BME280;40241;52.684;9.758;2023-05-09T01:46:20;101692.28;;;14.06;44.62
5651;BME280;40241;52.684;9.758;2023-05-09T01:48:47;101708.56;;;14.04;44.71
5651;BME280;40241;52.684;9.758;2023-05-09T01:51:15;101692.75;;;14.05;44.86
5651;BME280;40241;52.684;9.758;2023-05-09T01:53:41;101721.88;;;14.00;44.75
5651;BME280;40241;52.684;9.758;2023-05-09T01:56:08;101695.22;;;13.97;44.58
5651;BME280;40241;52.684;9.758;2023-05-09T01:58:34;101674.03;;;13.94;44.85
5651;BME280;40241;52.684;9.758;2023-05-09T02:01:02;101693.16;;;13.92;44.72
5651;BME280;40241;52.684;9.758;2023-05-09T02:03:30;101691.09;;;13.87;44.72
5651;BME280;40241;52.684;9.758;2023-05-09T02:05:58;101676.94;;;13.80;44.82
5651;BME280;40241;52.684;9.758;2023-05-09T02:08:24;101677.66;;;13.75;44.64
5651;BME280;40241;52.684;9.758;2023-05-09T02:10:50;101679.88;;;13.71;44.79
5651;BME280;40241;52.684;9.758;2023-05-09T02:13:15;101679.06;;;13.65;44.81
5651;BME280;40241;52.684;9.758;2023-05-09T02:15:42;101672.50;;;13.62;44.82
5651;BME280;40241;52.684;9.758;2023-05-09T02:18:08;101689.59;;;13.61;44.98
5651;BME280;40241;52.684;9.758;2023-05-09T02:20:33;101668.44;;;13.58;44.97
5651;BME280;40241;52.684;9.758;2023-05-09T02:23:00;101662.16;;;13.57;45.07
5651;BME280;40241;52.684;9.758;2023-05-09T02:25:26;101671.44;;;13.54;44.88
5651;BME280;40241;52.684;9.758;2023-05-09T02:27:54;101667.38;;;13.49;45.08
5651;BME280;40241;52.684;9.758;2023-05-09T02:30:22;101670.88;;;13.50;45.24
5651;BME280;40241;52.684;9.758;2023-05-09T02:32:51;101664.59;;;13.49;45.15
5651;BME280;40241;52.684;9.758;2023-05-09T02:35:18;101664.53;;;13.44;45.21
5651;BME280;40241;52.684;9.758;2023-05-09T02:37:44;101662.00;;;13.40;45.50
5651;BME280;40241;52.684;9.758;2023-05-09T02:40:10;101669.25;;;13.38;45.34
5651;BME280;40241;52.684;9.758;2023-05-09T02:42:36;101671.75;;;13.36;45.41
5651;BME280;40241;52.684;9.758;2023-05-09T02:45:01;101665.44;;;13.35;45.47
5651;BME280;40241;52.684;9.758;2023-05-09T02:47:27;101669.19;;;13.32;45.55
5651;BME280;40241;52.684;9.758;2023-05-09T02:49:52;101668.44;;;13.32;45.50
5651;BME280;40241;52.684;9.758;2023-05-09T02:52:17;101670.44;;;13.31;45.58
5651;BME280;40241;52.684;9.758;2023-05-09T02:54:43;101672.94;;;13.29;45.73
5651;BME280;40241;52.684;9.758;2023-05-09T02:57:09;101670.94;;;13.30;45.58
5651;BME280;40241;52.684;9.758;2023-05-09T02:59:35;101665.59;;;13.26;45.58
5651;BME280;40241;52.684;9.758;2023-05-09T03:02:00;101670.59;;;13.22;45.62
5651;BME280;40241;52.684;9.758;2023-05-09T03:04:26;101660.50;;;13.19;45.58
5651;BME280;40241;52.684;9.758;2023-05-09T03:06:51;101651.38;;;13.13;45.86
5651;BME280;40241;52.684;9.758;2023-05-09T03:09:17;101667.69;;;13.11;46.00
5651;BME280;40241;52.684;9.758;2023-05-09T03:11:42;101647.31;;;13.09;46.05
5651;BME280;40241;52.684;9.758;2023-05-09T03:14:08;101654.88;;;13.08;46.15
5651;BME280;40241;52.684;9.758;2023-05-09T03:16:34;101647.53;;;13.05;46.20
5651;BME280;40241;52.684;9.758;2023-05-09T03:19:00;101641.16;;;12.99;46.04
5651;BME280;40241;52.684;9.758;2023-05-09T03:21:25;101637.38;;;12.97;46.15
5651;BME280;40241;52.684;9.758;2023-05-09T03:23:51;101649.38;;;12.94;46.30
5651;BME280;40241;52.684;9.758;2023-05-09T03:26:16;101669.31;;;12.83;46.45
5651;BME280;40241;52.684;9.758;2023-05-09T03:28:42;101624.47;;;12.88;46.33
5651;BME280;40241;52.684;9.758;2023-05-09T03:31:07;101636.47;;;12.85;46.48
5651;BME280;40241;52.684;9.758;2023-05-09T03:33:32;101625.16;;;12.83;46.55
5651;BME280;40241;52.684;9.758;2023-05-09T03:35:58;101632.38;;;12.80;46.57
5651;BME280;40241;52.684;9.758;2023-05-09T03:38:23;101642.66;;;12.80;46.61
5651;BME280;40241;52.684;9.758;2023-05-09T03:40:54;101629.13;;;12.82;46.84
5651;BME280;40241;52.684;9.758;2023-05-09T03:43:20;101636.88;;;12.78;46.68
5651;BME280;40241;52.684;9.758;2023-05-09T03:45:45;101617.50;;;12.72;46.77
5651;BME280;40241;52.684;9.758;2023-05-09T03:48:10;101633.50;;;12.68;47.06
5651;BME280;40241;52.684;9.758;2023-05-09T03:50:36;101637.00;;;12.69;46.88
5651;BME280;40241;52.684;9.758;2023-05-09T03:53:02;101630.25;;;12.70;47.03
5651;BME280;40241;52.684;9.758;2023-05-09T03:55:28;101633.00;;;12.70;47.12
5651;BME280;40241;52.684;9.758;2023-05-09T03:57:54;101621.97;;;12.70;47.07
5651;BME280;40241;52.684;9.758;2023-05-09T04:00:20;101617.41;;;12.67;47.29
5651;BME280;40241;52.684;9.758;2023-05-09T04:02:46;101615.22;;;12.71;47.18
5651;BME280;40241;52.684;9.758;2023-05-09T04:05:12;101639.09;;;12.74;47.19
5651;BME280;40241;52.684;9.758;2023-05-09T04:07:37;101619.00;;;12.73;47.08
5651;BME280;40241;52.684;9.758;2023-05-09T04:10:03;101646.59;;;12.73;47.11
5651;BME280;40241;52.684;9.758;2023-05-09T04:12:28;101604.44;;;12.73;47.39
5651;BME280;40241;52.684;9.758;2023-05-09T04:14:53;101621.56;;;12.77;47.39
5651;BME280;40241;52.684;9.758;2023-05-09T04:17:19;101629.97;;;12.68;47.26
5651;BME280;40241;52.684;9.758;2023-05-09T04:19:44;101605.94;;;12.74;47.32
5651;BME280;40241;52.684;9.758;2023-05-09T04:22:09;101612.72;;;12.73;47.40
5651;BME280;40241;52.684;9.758;2023-05-09T04:24:35;101593.69;;;12.75;47.32
5651;BME280;40241;52.684;9.758;2023-05-09T04:27:00;101607.25;;;12.78;47.59
5651;BME280;40241;52.684;9.758;2023-05-09T04:29:26;101605.53;;;12.81;47.52
5651;BME280;40241;52.684;9.758;2023-05-09T04:31:52;101608.56;;;12.83;47.61
5651;BME280;40241;52.684;9.758;2023-05-09T04:34:17;101594.28;;;12.85;47.50
5651;BME280;40241;52.684;9.758;2023-05-09T04:36:43;101604.34;;;12.88;47.53
5651;BME280;40241;52.684;9.758;2023-05-09T04:39:08;101608.22;;;12.96;47.71
5651;BME280;40241;52.684;9.758;2023-05-09T04:41:35;101607.25;;;12.99;47.47
5651;BME280;40241;52.684;9.758;2023-05-09T04:44:00;101607.53;;;13.01;47.63
5651;BME280;40241;52.684;9.758;2023-05-09T04:46:26;101606.09;;;13.05;47.60
5651;BME280;40241;52.684;9.758;2023-05-09T04:48:52;101608.91;;;13.11;47.64
5651;BME280;40241;52.684;9.758;2023-05-09T04:51:17;101599.66;;;13.14;47.83
5651;BME280;40241;52.684;9.758;2023-05-09T04:53:43;101593.91;;;13.17;47.73
5651;BME280;40241;52.684;9.758;2023-05-09T04:56:08;101602.69;;;13.16;47.74
5651;BME280;40241;52.684;9.758;2023-05-09T04:58:34;101586.88;;;13.16;47.71
5651;BME280;40241;52.684;9.758;2023-05-09T05:01:05;101596.19;;;13.19;47.92
5651;BME280;40241;52.684;9.758;2023-05-09T05:03:31;101597.78;;;13.25;48.09
5651;BME280;40241;52.684;9.758;2023-05-09T05:05:57;101594.28;;;13.30;48.09
5651;BME280;40241;52.684;9.758;2023-05-09T05:08:22;101593.31;;;13.33;47.99
5651;BME280;40241;52.684;9.758;2023-05-09T05:10:48;101591.59;;;13.36;48.03
5651;BME280;40241;52.684;9.758;2023-05-09T05:13:14;101575.78;;;13.36;47.96
5651;BME280;40241;52.684;9.758;2023-05-09T05:15:40;101593.34;;;13.39;48.15
5651;BME280;40241;52.684;9.758;2023-05-09T05:18:05;101584.09;;;13.42;48.15
5651;BME280;40241;52.684;9.758;2023-05-09T05:20:31;101572.78;;;13.40;48.22
5651;BME280;40241;52.684;9.758;2023-05-09T05:22:56;101579.44;;;13.53;47.95
5651;BME280;40241;52.684;9.758;2023-05-09T05:25:23;101557.56;;;13.56;47.92
5651;BME280;40241;52.684;9.758;2023-05-09T05:27:48;101603.59;;;13.59;48.01
5651;BME280;40241;52.684;9.758;2023-05-09T05:30:14;101568.75;;;13.72;47.84
5651;BME280;40241;52.684;9.758;2023-05-09T05:32:42;101563.50;;;13.74;48.08
5651;BME280;40241;52.684;9.758;2023-05-09T05:35:09;101566.84;;;13.84;48.10
5651;BME280;40241;52.684;9.758;2023-05-09T05:37:37;101575.16;;;13.89;47.95
5651;BME280;40241;52.684;9.758;2023-05-09T05:40:03;101567.69;;;13.95;47.91
5651;BME280;40241;52.684;9.758;2023-05-09T05:42:28;101580.28;;;14.02;47.98
5651;BME280;40241;52.684;9.758;2023-05-09T05:44:54;101582.31;;;14.07;48.27
5651;BME280;40241;52.684;9.758;2023-05-09T05:47:19;101560.25;;;14.18;48.10
5651;BME280;40241;52.684;9.758;2023-05-09T05:49:45;101562.28;;;14.23;48.07
5651;BME280;40241;52.684;9.758;2023-05-09T05:52:10;101572.94;;;14.36;48.15
5651;BME280;40241;52.684;9.758;2023-05-09T05:54:35;101551.38;;;14.45;48.26
5651;BME280;40241;52.684;9.758;2023-05-09T05:57:01;101568.53;;;14.60;48.06
5651;BME280;40241;52.684;9.758;2023-05-09T05:59:26;101562.78;;;14.75;47.85
5651;BME280;40241;52.684;9.758;2023-05-09T06:01:51;101566.88;;;14.85;47.84
5651;BME280;40241;52.684;9.758;2023-05-09T06:04:16;101555.31;;;15.03;47.85
5651;BME280;40241;52.684;9.758;2023-05-09T06:06:42;101555.59;;;15.22;47.70
5651;BME280;40241;52.684;9.758;2023-05-09T06:09:07;101542.75;;;15.35;47.45
5651;BME280;40241;52.684;9.758;2023-05-09T06:11:33;101547.81;;;15.48;47.20
5651;BME280;40241;52.684;9.758;2023-05-09T06:13:58;101550.84;;;15.55;47.27
5651;BME280;40241;52.684;9.758;2023-05-09T06:16:23;101544.56;;;15.55;47.16
5651;BME280;40241;52.684;9.758;2023-05-09T06:18:49;101551.06;;;15.57;47.27
5651;BME280;40241;52.684;9.758;2023-05-09T06:21:14;101536.22;;;15.55;47.33
5651;BME280;40241;52.684;9.758;2023-05-09T06:23:40;101542.25;;;15.53;47.30
5651;BME280;40241;52.684;9.758;2023-05-09T06:26:05;101536.22;;;15.49;47.37
5651;BME280;40241;52.684;9.758;2023-05-09T06:28:30;101525.63;;;15.48;47.44
5651;BME280;40241;52.684;9.758;2023-05-09T06:30:56;101523.59;;;15.54;47.62
5651;BME280;40241;52.684;9.758;2023-05-09T06:33:21;101523.88;;;15.61;47.57
5651;BME280;40241;52.684;9.758;2023-05-09T06:35:46;101533.44;;;15.71;47.41
5651;BME280;40241;52.684;9.758;2023-05-09T06:38:12;101517.53;;;15.72;47.57
5651;BME280;40241;52.684;9.758;2023-05-09T06:40:37;101538.22;;;15.88;47.70
5651;BME280;40241;52.684;9.758;2023-05-09T06:43:02;101519.50;;;15.99;47.38
5651;BME280;40241;52.684;9.758;2023-05-09T06:45:28;101519.69;;;16.12;47.38
5651;BME280;40241;52.684;9.758;2023-05-09T06:47:54;101515.41;;;16.22;47.38
5651;BME280;40241;52.684;9.758;2023-05-09T06:50:20;101509.81;;;16.28;47.17
5651;BME280;40241;52.684;9.758;2023-05-09T06:52:45;101501.19;;;16.37;47.15
5651;BME280;40241;52.684;9.758;2023-05-09T06:55:10;101496.84;;;16.53;47.17
5651;BME280;40241;52.684;9.758;2023-05-09T06:57:37;101496.78;;;16.64;47.01
5651;BME280;40241;52.684;9.758;2023-05-09T07:00:04;101503.31;;;16.72;46.91
5651;BME280;40241;52.684;9.758;2023-05-09T07:02:30;101482.53;;;16.78;46.90
5651;BME280;40241;52.684;9.758;2023-05-09T07:04:55;101492.34;;;16.85;46.89
5651;BME280;40241;52.684;9.758;2023-05-09T07:07:21;101472.88;;;16.90;46.82
5651;BME280;40241;52.684;9.758;2023-05-09T07:09:46;101478.38;;;16.96;46.60
5651;BME280;40241;52.684;9.758;2023-05-09T07:12:11;101466.47;;;17.01;46.67
5651;BME280;40241;52.684;9.758;2023-05-09T07:14:37;101475.19;;;17.16;46.58
5651;BME280;40241;52.684;9.758;2023-05-09T07:17:02;101459.44;;;17.24;46.52
5651;BME280;40241;52.684;9.758;2023-05-09T07:19:28;101455.13;;;17.29;46.56
5651;BME280;40241;52.684;9.758;2023-05-09T07:21:53;101470.72;;;17.37;46.69
5651;BME280;40241;52.684;9.758;2023-05-09T07:24:18;101452.66;;;17.49;46.48
5651;BME280;40241;52.684;9.758;2023-05-09T07:26:44;101455.34;;;17.60;46.58
5651;BME280;40241;52.684;9.758;2023-05-09T07:29:09;101446.13;;;17.71;46.54
5651;BME280;40241;52.684;9.758;2023-05-09T07:31:34;101454.84;;;17.80;46.55
5651;BME280;40241;52.684;9.758;2023-05-09T07:34:00;101447.91;;;17.92;46.01
5651;BME280;40241;52.684;9.758;2023-05-09T07:36:25;101438.97;;;18.00;46.10
5651;BME280;40241;52.684;9.758;2023-05-09T07:38:50;101439.06;;;18.13;46.13
5651;BME280;40241;52.684;9.758;2023-05-09T07:41:17;101435.38;;;18.23;45.98
5651;BME280;40241;52.684;9.758;2023-05-09T07:43:43;101435.94;;;18.35;45.80
5651;BME280;40241;52.684;9.758;2023-05-09T07:46:08;101424.16;;;18.47;45.80
5651;BME280;40241;52.684;9.758;2023-05-09T07:48:34;101440.63;;;18.64;45.92
5651;BME280;40241;52.684;9.758;2023-05-09T07:50:59;101422.69;;;18.78;45.53
5651;BME280;40241;52.684;9.758;2023-05-09T07:53:24;101416.94;;;18.89;45.18
5651;BME280;40241;52.684;9.758;2023-05-09T07:55:50;101412.88;;;19.03;45.20
5651;BME280;40241;52.684;9.758;2023-05-09T07:58:16;101415.81;;;19.11;45.18
5651;BME280;40241;52.684;9.758;2023-05-09T08:00:41;101402.41;;;19.22;45.22
5651;BME280;40241;52.684;9.758;2023-05-09T08:03:07;101401.38;;;19.38;44.83
5651;BME280;40241;52.684;9.758;2023-05-09T08:05:32;101397.06;;;19.51;44.59
5651;BME280;40241;52.684;9.758;2023-05-09T08:07:58;101403.97;;;19.63;44.63
5651;BME280;40241;52.684;9.758;2023-05-09T08:10:23;101403.00;;;19.73;44.62
5651;BME280;40241;52.684;9.758;2023-05-09T08:12:49;101389.56;;;19.85;44.30
5651;BME280;40241;52.684;9.758;2023-05-09T08:15:14;101378.16;;;19.96;44.25
5651;BME280;40241;52.684;9.758;2023-05-09T08:17:39;101386.28;;;20.07;44.21
5651;BME280;40241;52.684;9.758;2023-05-09T08:20:05;101380.91;;;20.22;43.95
5651;BME280;40241;52.684;9.758;2023-05-09T08:22:32;101375.28;;;20.35;43.61
5651;BME280;40241;52.684;9.758;2023-05-09T08:24:57;101386.41;;;20.48;43.67
5651;BME280;40241;52.684;9.758;2023-05-09T08:27:22;101366.78;;;20.61;43.20
5651;BME280;40241;52.684;9.758;2023-05-09T08:29:48;101375.84;;;20.75;43.26
5651;BME280;40241;52.684;9.758;2023-05-09T08:32:13;101373.72;;;20.88;43.27
5651;BME280;40241;52.684;9.758;2023-05-09T08:34:39;101367.31;;;21.01;43.06
5651;BME280;40241;52.684;9.758;2023-05-09T08:37:04;101367.00;;;21.12;43.06
5651;BME280;40241;52.684;9.758;2023-05-09T08:39:30;101376.81;;;21.26;42.84
5651;BME280;40241;52.684;9.758;2023-05-09T08:41:59;101374.31;;;21.43;42.59
5651;BME280;40241;52.684;9.758;2023-05-09T08:44:26;101350.50;;;21.57;42.42
5651;BME280;40241;52.684;9.758;2023-05-09T08:46:57;101355.78;;;21.69;42.17
5651;BME280;40241;52.684;9.758;2023-05-09T08:49:23;101346.72;;;21.83;41.83
5651;BME280;40241;52.684;9.758;2023-05-09T08:51:49;101338.38;;;21.98;41.86
5651;BME280;40241;52.684;9.758;2023-05-09T08:54:15;101370.38;;;22.10;41.67
5651;BME280;40241;52.684;9.758;2023-05-09T08:56:41;101337.16;;;22.29;41.25
5651;BME280;40241;52.684;9.758;2023-05-09T08:59:07;101334.94;;;22.43;41.71
5651;BME280;40241;52.684;9.758;2023-05-09T09:01:33;101339.59;;;22.56;41.25
5651;BME280;40241;52.684;9.758;2023-05-09T09:04:00;101327.28;;;22.74;40.77
5651;BME280;40241;52.684;9.758;2023-05-09T09:06:27;101329.91;;;22.87;40.65
5651;BME280;40241;52.684;9.758;2023-05-09T09:08:54;101313.25;;;22.96;40.36
5651;BME280;40241;52.684;9.758;2023-05-09T09:11:21;101335.69;;;23.11;40.04
5651;BME280;40241;52.684;9.758;2023-05-09T09:13:48;101329.84;;;23.25;39.65
5651;BME280;40241;52.684;9.758;2023-05-09T09:16:20;101322.72;;;23.39;39.06
5651;BME280;40241;52.684;9.758;2023-05-09T09:18:46;101313.50;;;23.53;39.22
5651;BME280;40241;52.684;9.758;2023-05-09T09:21:14;101296.97;;;23.65;38.84
5651;BME280;40241;52.684;9.758;2023-05-09T09:23:42;101308.16;;;23.80;38.26
5651;BME280;40241;52.684;9.758;2023-05-09T09:26:08;101311.06;;;23.90;38.47
5651;BME280;40241;52.684;9.758;2023-05-09T09:28:34;101311.41;;;24.09;38.46
5651;BME280;40241;52.684;9.758;2023-05-09T09:31:00;101304.16;;;24.23;38.08
5651;BME280;40241;52.684;9.758;2023-05-09T09:33:26;101311.78;;;24.37;37.75
5651;BME280;40241;52.684;9.758;2023-05-09T09:35:53;101291.78;;;24.50;37.53
5651;BME280;40241;52.684;9.758;2023-05-09T09:38:20;101299.06;;;24.53;37.06
5651;BME280;40241;52.684;9.758;2023-05-09T09:40:56;101293.72;;;24.65;35.98
5651;BME280;40241;52.684;9.758;2023-05-09T09:43:28;101299.84;;;24.71;35.94
5651;BME280;40241;52.684;9.758;2023-05-09T09:45:54;101279.38;;;24.78;36.57
5651;BME280;40241;52.684;9.758;2023-05-09T09:48:24;101287.72;;;24.86;36.38
5651;BME280;40241;52.684;9.758;2023-05-09T09:50:49;101276.56;;;24.95;36.53
5651;BME280;40241;52.684;9.758;2023-05-09T09:53:18;101282.28;;;25.05;35.98
5651;BME280;40241;52.684;9.758;2023-05-09T09:55:50;101281.53;;;25.21;35.24
5651;BME280;40241;52.684;9.758;2023-05-09T09:58:17;101270.91;;;25.29;36.00
5651;BME280;40241;52.684;9.758;2023-05-09T10:00:43;101288.34;;;25.36;36.12
5651;BME280;40241;52.684;9.758;2023-05-09T10:03:14;101264.63;;;25.39;35.36
5651;BME280;40241;52.684;9.758;2023-05-09T10:05:40;101272.09;;;25.44;35.88
5651;BME280;40241;52.684;9.758;2023-05-09T10:08:06;101257.19;;;25.51;35.74
5651;BME280;40241;52.684;9.758;2023-05-09T10:10:36;101269.53;;;25.55;35.89
5651;BME280;40241;52.684;9.758;2023-05-09T10:13:09;101252.50;;;25.63;34.95
5651;BME280;40241;52.684;9.758;2023-05-09T10:15:36;101236.34;;;25.63;35.36
5651;BME280;40241;52.684;9.758;2023-05-09T10:18:02;101235.19;;;25.66;35.58
5651;BME280;40241;52.684;9.758;2023-05-09T10:20:30;101246.88;;;25.63;35.47
5651;BME280;40241;52.684;9.758;2023-05-09T10:23:01;101225.31;;;25.58;34.84
5651;BME280;40241;52.684;9.758;2023-05-09T10:28:10;101246.53;;;25.59;35.00
5651;BME280;40241;52.684;9.758;2023-05-09T10:30:43;101211.13;;;25.65;35.12
5651;BME280;40241;52.684;9.758;2023-05-09T10:33:14;101226.59;;;25.74;34.58
5651;BME280;40241;52.684;9.758;2023-05-09T10:35:50;101221.03;;;25.83;33.75
5651;BME280;40241;52.684;9.758;2023-05-09T10:38:17;101193.75;;;25.95;34.93
5651;BME280;40241;52.684;9.758;2023-05-09T10:40:45;101189.78;;;25.98;34.08
5651;BME280;40241;52.684;9.758;2023-05-09T10:43:12;101185.34;;;26.05;34.63
5651;BME280;40241;52.684;9.758;2023-05-09T10:45:37;101189.84;;;26.18;34.50
5651;BME280;40241;52.684;9.758;2023-05-09T10:48:04;101188.53;;;26.28;34.10
5651;BME280;40241;52.684;9.758;2023-05-09T10:50:31;101186.78;;;26.42;33.99
5651;BME280;40241;52.684;9.758;2023-05-09T10:55:38;101168.88;;;26.76;32.49
5651;BME280;40241;52.684;9.758;2023-05-09T11:00:48;101159.81;;;26.97;33.34
5651;BME280;40241;52.684;9.758;2023-05-09T11:03:13;101143.13;;;27.10;32.87
5651;BME280;40241;52.684;9.758;2023-05-09T11:05:39;101140.47;;;27.12;32.65
5651;BME280;40241;52.684;9.758;2023-05-09T11:08:34;101133.63;;;27.06;31.11
5651;BME280;40241;52.684;9.758;2023-05-09T11:11:06;101134.47;;;27.18;31.42
5651;BME280;40241;52.684;9.758;2023-05-09T11:13:35;101145.03;;;27.27;32.30
5651;BME280;40241;52.684;9.758;2023-05-09T11:16:07;101132.06;;;27.43;32.60
5651;BME280;40241;52.684;9.758;2023-05-09T11:18:32;101126.97;;;27.61;32.33
5651;BME280;40241;52.684;9.758;2023-05-09T11:20:58;101120.94;;;27.76;32.38
5651;BME280;40241;52.684;9.758;2023-05-09T11:23:29;101122.50;;;27.88;32.15
5651;BME280;40241;52.684;9.758;2023-05-09T11:26:04;101115.66;;;27.91;30.95
5651;BME280;40241;52.684;9.758;2023-05-09T11:28:32;101105.53;;;27.88;31.80
5651;BME280;40241;52.684;9.758;2023-05-09T11:31:11;101104.69;;;27.76;30.84
5651;BME280;40241;52.684;9.758;2023-05-09T11:33:37;101108.31;;;27.67;31.86
5651;BME280;40241;52.684;9.758;2023-05-09T11:36:19;101107.84;;;27.71;30.97
5651;BME280;40241;52.684;9.758;2023-05-09T11:38:46;101101.00;;;27.74;31.57
5651;BME280;40241;52.684;9.758;2023-05-09T11:41:12;101102.94;;;27.71;32.03
5651;BME280;40241;52.684;9.758;2023-05-09T11:43:38;101107.50;;;27.76;31.81
5651;BME280;40241;52.684;9.758;2023-05-09T11:46:04;101099.31;;;27.80;31.55
5651;BME280;40241;52.684;9.758;2023-05-09T11:48:30;101087.72;;;27.76;31.29
5651;BME280;40241;52.684;9.758;2023-05-09T11:50:55;101089.56;;;27.72;31.33
5651;BME280;40241;52.684;9.758;2023-05-09T11:53:21;101079.97;;;27.77;31.32
5651;BME280;40241;52.684;9.758;2023-05-09T11:55:46;101086.34;;;27.87;31.52
5651;BME280;40241;52.684;9.758;2023-05-09T11:58:12;101073.78;;;27.90;31.43
5651;BME280;40241;52.684;9.758;2023-05-09T12:00:43;101088.94;;;28.04;30.89
5651;BME280;40241;52.684;9.758;2023-05-09T12:03:09;101065.06;;;28.07;31.25
5651;BME280;40241;52.684;9.758;2023-05-09T12:05:36;101064.41;;;28.18;31.44
5651;BME280;40241;52.684;9.758;2023-05-09T12:08:05;101057.19;;;28.27;31.27
5651;BME280;40241;52.684;9.758;2023-05-09T12:10:31;101058.53;;;28.26;31.24
5651;BME280;40241;52.684;9.758;2023-05-09T12:12:56;101063.53;;;28.37;31.01
5651;BME280;40241;52.684;9.758;2023-05-09T12:15:22;101054.72;;;28.54;31.32
5651;BME280;40241;52.684;9.758;2023-05-09T12:18:00;101062.69;;;28.67;31.05
5651;BME280;40241;52.684;9.758;2023-05-09T12:20:27;101054.38;;;28.59;31.06
5651;BME280;40241;52.684;9.758;2023-05-09T12:22:52;101058.09;;;28.62;31.44
5651;BME280;40241;52.684;9.758;2023-05-09T12:25:18;101060.97;;;28.73;31.32
5651;BME280;40241;52.684;9.758;2023-05-09T12:27:44;101069.09;;;28.67;30.94
5651;BME280;40241;52.684;9.758;2023-05-09T12:30:10;101050.28;;;28.51;31.16
5651;BME280;40241;52.684;9.758;2023-05-09T12:32:38;101056.91;;;28.44;31.33
5651;BME280;40241;52.684;9.758;2023-05-09T12:35:06;101054.16;;;28.34;31.23
5651;BME280;40241;52.684;9.758;2023-05-09T12:37:31;101047.84;;;28.24;31.40
5651;BME280;40241;52.684;9.758;2023-05-09T12:40:13;101036.72;;;28.16;31.15
5651;BME280;40241;52.684;9.758;2023-05-09T12:42:43;101051.25;;;28.23;31.46
5651;BME280;40241;52.684;9.758;2023-05-09T12:45:09;101040.31;;;28.29;31.69
5651;BME280;40241;52.684;9.758;2023-05-09T12:47:35;101027.47;;;28.37;31.67
5651;BME280;40241;52.684;9.758;2023-05-09T12:50:04;101031.00;;;28.59;31.36
5651;BME280;40241;52.684;9.758;2023-05-09T12:52:36;101024.53;;;28.79;31.11
5651;BME280;40241;52.684;9.758;2023-05-09T12:55:06;101030.84;;;29.01;31.21
5651;BME280;40241;52.684;9.758;2023-05-09T12:57:32;101023.34;;;29.06;31.03
5651;BME280;40241;52.684;9.758;2023-05-09T12:59:58;101022.22;;;28.99;30.82
5651;BME280;40241;52.684;9.758;2023-05-09T13:02:33;101025.28;;;28.80;30.84
5651;BME280;40241;52.684;9.758;2023-05-09T13:05:09;101018.84;;;28.68;30.41
5651;BME280;40241;52.684;9.758;2023-05-09T13:07:46;101017.56;;;28.59;30.94
5651;BME280;40241;52.684;9.758;2023-05-09T13:10:17;101007.13;;;28.62;31.23
5651;BME280;40241;52.684;9.758;2023-05-09T13:12:45;101012.19;;;28.63;31.21
5651;BME280;40241;52.684;9.758;2023-05-09T13:15:14;101017.72;;;28.61;31.39